Time;durP1;ratioP1;P1;durP2;ratioP2;P2;SDS_P1;SDS_P2;PMS_P1;PMS_P2;Temp;Humidity;BMP_temperature;BMP_pressure;BME280_temperature;BME280_humidity;BME280_pressure;Samples;Min_cycle;Max_cycle;Signal;HPM_P1;HPM_P2
2023/07/21 00:00:21;;;;;;;5.03;2.27;;;;;;;18.49;59.76;97639.34;4997194;28;20207;-77
2023/07/21 00:02:48;;;;;;;3.83;2.10;;;;;;;18.48;60.25;97643.94;4996219;28;20207;-76
2023/07/21 00:05:16;;;;;;;2.80;2.30;;;;;;;18.57;58.93;97636.06;4997636;28;20261;-74
2023/07/21 00:07:44;;;;;;;4.63;2.40;;;;;;;18.59;58.58;97636.59;4997326;28;20239;-74
2023/07/21 00:10:11;;;;;;;4.00;2.00;;;;;;;18.56;57.98;97635.28;4997049;28;20290;-74
2023/07/21 00:12:42;;;;;;;2.50;2.23;;;;;;;18.51;59.31;97627.22;4995616;28;20230;-74
2023/07/21 00:15:10;;;;;;;5.07;2.53;;;;;;;18.55;58.75;97633.66;4996862;28;20191;-74
2023/07/21 00:17:37;;;;;;;3.63;2.10;;;;;;;18.54;59.67;97626.66;4997124;28;20203;-76
2023/07/21 00:20:18;;;;;;;6.03;2.50;;;;;;;18.52;60.72;97617.25;4995720;28;20694;-76
2023/07/21 00:22:45;;;;;;;5.87;2.57;;;;;;;18.53;60.00;97624.25;4996033;28;20274;-76
2023/07/21 00:25:11;;;;;;;7.90;3.10;;;;;;;18.53;60.42;97633.13;4995715;28;20694;-76
2023/07/21 00:27:43;;;;;;;4.27;2.27;;;;;;;18.49;61.16;97629.41;4996707;28;20234;-77
2023/07/21 00:30:10;;;;;;;3.93;2.50;;;;;;;18.47;60.25;97631.56;4996619;28;20227;-77
2023/07/21 00:32:37;;;;;;;3.63;2.47;;;;;;;18.56;59.10;97612.94;4996713;28;20239;-77
2023/07/21 00:35:05;;;;;;;2.93;2.00;;;;;;;18.62;58.65;97626.06;4994815;28;20317;-76
2023/07/21 00:37:32;;;;;;;3.73;2.30;;;;;;;18.56;59.05;97624.50;4995455;28;20286;-77
2023/07/21 00:39:58;;;;;;;3.70;2.10;;;;;;;18.50;59.79;97622.13;4995179;28;20685;-76
2023/07/21 00:42:25;;;;;;;3.37;2.20;;;;;;;18.54;60.30;97631.22;4993849;28;20214;-76
2023/07/21 00:44:51;;;;;;;3.83;1.90;;;;;;;18.52;60.05;97626.16;4995795;28;20666;-76
2023/07/21 00:47:17;;;;;;;3.07;2.10;;;;;;;18.49;60.13;97623.19;4995117;28;20670;-76
2023/07/21 00:49:44;;;;;;;2.87;2.17;;;;;;;18.46;60.27;97619.16;4994550;28;20736;-77
2023/07/21 00:52:13;;;;;;;3.00;1.80;;;;;;;18.51;60.80;97623.72;4996279;28;20215;-76
2023/07/21 00:54:40;;;;;;;3.10;2.30;;;;;;;18.45;60.73;97622.94;4996249;28;20211;-76
2023/07/21 00:57:07;;;;;;;5.57;1.93;;;;;;;18.47;61.05;97618.13;4994983;28;20211;-76
2023/07/21 00:59:33;;;;;;;3.87;2.10;;;;;;;18.45;61.35;97611.38;4996149;28;20227;-76
2023/07/21 01:01:59;;;;;;;4.10;2.30;;;;;;;18.42;61.26;97618.13;4996113;28;20207;-77
2023/07/21 01:04:26;;;;;;;2.77;2.10;;;;;;;18.45;63.10;97619.44;4996151;28;20210;-77
2023/07/21 01:06:54;;;;;;;3.20;2.13;;;;;;;18.37;63.69;97610.09;4995108;28;20211;-76
2023/07/21 01:09:22;;;;;;;4.50;2.10;;;;;;;18.31;62.30;97607.66;4993629;28;20228;-76
2023/07/21 01:11:49;;;;;;;2.20;2.00;;;;;;;18.26;62.93;97597.75;4995608;28;20573;-76
2023/07/21 01:14:15;;;;;;;2.97;2.20;;;;;;;18.14;63.65;97608.03;4995905;28;20204;-76
2023/07/21 01:16:44;;;;;;;2.77;2.20;;;;;;;18.19;63.88;97610.69;4995404;28;20203;-76
2023/07/21 01:19:14;;;;;;;2.83;2.23;;;;;;;18.19;63.78;97610.69;4995239;28;20230;-76
2023/07/21 01:21:47;;;;;;;2.70;2.30;;;;;;;18.05;63.76;97598.94;4995826;28;20191;-76
2023/07/21 01:24:24;;;;;;;3.67;2.30;;;;;;;17.98;64.29;97601.16;4995726;28;20214;-76
2023/07/21 01:26:51;;;;;;;2.40;2.03;;;;;;;17.98;65.52;97586.88;4995970;28;20187;-76
2023/07/21 01:29:19;;;;;;;4.17;2.00;;;;;;;17.96;65.94;97589.84;4994248;28;20241;-76
2023/07/21 01:31:49;;;;;;;4.77;1.83;;;;;;;17.95;64.99;97588.25;4995588;28;20207;-76
2023/07/21 01:34:17;;;;;;;5.10;2.40;;;;;;;17.93;65.12;97582.34;4995401;28;20191;-76
2023/07/21 01:36:44;;;;;;;4.70;1.93;;;;;;;17.91;65.63;97578.31;4993944;28;20207;-76
2023/07/21 01:39:12;;;;;;;4.27;2.07;;;;;;;17.99;64.81;97581.22;4995161;28;20725;-76
2023/07/21 01:41:39;;;;;;;4.83;2.20;;;;;;;17.99;64.68;97575.84;4995373;28;20211;-76
2023/07/21 01:44:06;;;;;;;2.67;2.00;;;;;;;17.95;64.24;97574.78;4995368;28;20213;-76
2023/07/21 01:46:32;;;;;;;6.30;2.10;;;;;;;17.93;64.66;97576.97;4994178;28;20211;-76
2023/07/21 01:48:58;;;;;;;4.93;2.60;;;;;;;17.88;66.04;97573.50;4994945;28;20253;-76
2023/07/21 01:51:27;;;;;;;2.87;2.00;;;;;;;17.80;66.49;97574.88;4995299;28;20202;-76
2023/07/21 01:54:02;;;;;;;5.70;2.30;;;;;;;17.86;65.81;97568.38;4995127;28;20569;-76
2023/07/21 01:56:59;;;;;;;3.53;2.20;;;;;;;17.85;67.49;97569.47;4994741;28;20207;-76
2023/07/21 01:59:26;;;;;;;3.80;2.10;;;;;;;17.84;66.75;97565.19;4994187;28;20231;-74
2023/07/21 02:01:55;;;;;;;2.40;2.03;;;;;;;17.77;65.88;97561.97;4993836;28;20211;-74
2023/07/21 02:04:23;;;;;;;2.53;2.10;;;;;;;17.82;66.71;97570.00;4994305;28;20207;-74
2023/07/21 02:06:51;;;;;;;3.67;1.80;;;;;;;17.85;65.92;97569.47;4994940;28;20204;-74
2023/07/21 02:09:17;;;;;;;2.27;2.07;;;;;;;17.94;66.20;97570.50;4994034;28;20235;-73
2023/07/21 02:11:48;;;;;;;3.97;2.30;;;;;;;17.89;67.56;97567.03;4994537;28;20304;-73
2023/07/21 02:14:15;;;;;;;2.20;2.00;;;;;;;17.89;66.60;97569.72;4995603;28;20208;-73
2023/07/21 02:16:41;;;;;;;4.60;2.10;;;;;;;17.97;65.92;97561.84;4994757;28;20291;-74
2023/07/21 02:19:08;;;;;;;3.10;2.23;;;;;;;17.99;65.58;97556.19;4994279;28;20234;-74
2023/07/21 02:21:35;;;;;;;3.50;2.10;;;;;;;18.01;64.69;97557.53;4994453;28;20305;-74
2023/07/21 02:24:01;;;;;;;2.97;2.20;;;;;;;17.96;64.06;97557.56;4993881;28;20232;-74
2023/07/21 02:26:29;;;;;;;3.07;1.63;;;;;;;17.95;63.86;97550.59;4994656;28;20215;-74
2023/07/21 02:28:55;;;;;;;4.20;2.20;;;;;;;17.89;65.67;97558.97;4994200;28;20649;-74
2023/07/21 02:31:22;;;;;;;3.70;1.90;;;;;;;17.84;65.22;97554.41;4994523;28;20215;-74
2023/07/21 02:33:48;;;;;;;2.30;1.73;;;;;;;17.83;65.34;97555.47;4993921;28;20234;-74
2023/07/21 02:36:16;;;;;;;3.37;2.20;;;;;;;17.84;64.78;97558.97;4994507;28;20211;-74
2023/07/21 02:38:42;;;;;;;2.40;2.00;;;;;;;17.80;66.88;97558.75;4993805;28;20651;-74
2023/07/21 02:41:09;;;;;;;5.40;2.30;;;;;;;17.79;64.42;97554.44;4994727;28;20218;-74
2023/07/21 02:43:36;;;;;;;6.00;2.30;;;;;;;17.81;64.83;97560.34;4994361;28;20235;-74
2023/07/21 02:46:03;;;;;;;3.50;2.40;;;;;;;17.92;64.81;97558.41;4992238;28;20629;-74
2023/07/21 02:48:32;;;;;;;3.47;2.30;;;;;;;17.89;64.16;97556.28;4993801;28;20313;-75
2023/07/21 02:51:00;;;;;;;2.90;2.03;;;;;;;17.92;65.95;97553.03;4994243;28;20211;-74
2023/07/21 02:53:27;;;;;;;5.83;2.40;;;;;;;17.85;65.14;97547.97;4994211;28;20262;-74
2023/07/21 02:55:53;;;;;;;3.03;2.30;;;;;;;17.89;65.49;97540.13;4993390;28;20218;-74
2023/07/21 02:58:20;;;;;;;3.63;2.40;;;;;;;17.84;65.62;97537.47;4994125;28;20230;-74
2023/07/21 03:00:47;;;;;;;2.50;2.30;;;;;;;17.82;65.64;97536.97;4994128;28;20213;-74
2023/07/21 03:03:14;;;;;;;3.97;2.20;;;;;;;17.88;67.31;97536.66;4994234;28;20238;-74
2023/07/21 03:05:41;;;;;;;5.23;2.47;;;;;;;17.84;67.30;97537.47;4992946;28;20210;-74
2023/07/21 03:08:09;;;;;;;3.77;2.60;;;;;;;17.74;68.01;97537.53;4994048;28;20254;-74
2023/07/21 03:10:35;;;;;;;4.10;2.77;;;;;;;17.70;68.45;97539.16;4994094;28;20203;-74
2023/07/21 03:13:02;;;;;;;4.23;2.70;;;;;;;17.76;67.82;97544.25;4994088;28;20211;-74
2023/07/21 03:15:28;;;;;;;4.10;2.37;;;;;;;17.73;68.26;97544.78;4994023;28;20211;-74
2023/07/21 03:17:55;;;;;;;4.93;2.47;;;;;;;17.65;68.44;97548.03;4993764;28;20207;-74
2023/07/21 03:20:21;;;;;;;3.40;2.20;;;;;;;17.51;69.21;97543.56;4993689;28;20713;-74
2023/07/21 03:22:48;;;;;;;4.80;2.70;;;;;;;17.42;69.31;97543.31;4993776;28;20211;-74
2023/07/21 03:25:14;;;;;;;4.83;2.80;;;;;;;17.38;69.17;97544.09;4994322;28;20211;-74
2023/07/21 03:27:41;;;;;;;3.73;2.60;;;;;;;17.41;69.13;97536.31;4993944;28;20214;-74
2023/07/21 03:30:10;;;;;;;3.57;2.50;;;;;;;17.41;69.80;97541.69;4993885;28;20242;-74
2023/07/21 03:32:38;;;;;;;3.30;2.60;;;;;;;17.43;69.11;97546.81;4992921;28;20658;-74
2023/07/21 03:35:05;;;;;;;3.00;2.47;;;;;;;17.46;69.15;97549.75;4993895;28;20266;-74
2023/07/21 03:37:34;;;;;;;3.77;2.67;;;;;;;17.41;69.79;97552.44;4994039;28;20290;-74
2023/07/21 03:40:06;;;;;;;3.30;2.47;;;;;;;17.43;70.42;97555.69;4993725;28;20278;-75
2023/07/21 03:42:33;;;;;;;3.50;2.70;;;;;;;17.41;70.47;97557.03;4993212;28;20215;-75
2023/07/21 03:45:00;;;;;;;4.83;2.50;;;;;;;17.44;71.39;97545.72;4993309;28;20207;-74
2023/07/21 03:47:27;;;;;;;5.40;2.87;;;;;;;17.46;71.71;97541.69;4993748;28;20207;-74
2023/07/21 03:49:54;;;;;;;3.47;2.50;;;;;;;17.48;70.81;97546.78;4992640;28;20381;-74
2023/07/21 03:52:20;;;;;;;5.40;2.57;;;;;;;17.48;70.93;97544.91;4993016;28;20213;-74
2023/07/21 03:54:47;;;;;;;3.43;2.60;;;;;;;17.49;72.43;97543.00;4993302;28;20208;-74
2023/07/21 03:57:14;;;;;;;4.60;3.23;;;;;;;17.52;71.87;97532.53;4994259;28;20574;-74
2023/07/21 03:59:42;;;;;;;4.20;2.80;;;;;;;17.54;70.51;97534.91;4996957;28;20223;-74
2023/07/21 04:02:08;;;;;;;4.03;2.77;;;;;;;17.56;70.30;97538.94;4994959;28;20203;-74
2023/07/21 04:04:35;;;;;;;5.37;2.63;;;;;;;17.56;70.49;97532.78;4996287;28;20238;-74
2023/07/21 04:07:01;;;;;;;4.57;3.07;;;;;;;17.55;70.20;97539.25;4994645;28;20203;-74
2023/07/21 04:09:29;;;;;;;5.40;2.90;;;;;;;17.54;70.64;97526.84;4992830;28;20234;-74
2023/07/21 04:11:55;;;;;;;4.63;2.67;;;;;;;17.56;70.81;97533.56;4996544;28;20207;-74
2023/07/21 04:14:21;;;;;;;4.50;2.80;;;;;;;17.56;71.33;97528.19;4996651;28;20203;-74
2023/07/21 04:16:48;;;;;;;4.93;2.53;;;;;;;17.48;72.35;97522.59;4995035;28;20659;-74
2023/07/21 04:19:14;;;;;;;4.03;2.93;;;;;;;17.56;72.02;97524.72;4996555;28;20309;-74
2023/07/21 04:21:40;;;;;;;6.33;2.50;;;;;;;17.67;70.47;97519.00;4996702;28;20203;-75
2023/07/21 04:24:07;;;;;;;3.57;2.67;;;;;;;17.58;72.82;97535.97;4996168;28;20203;-75
2023/07/21 04:26:33;;;;;;;4.90;2.63;;;;;;;17.63;73.61;97525.19;4995484;28;20203;-75
2023/07/21 04:29:01;;;;;;;4.13;2.53;;;;;;;17.62;72.68;97527.09;4995040;28;20270;-74
2023/07/21 04:31:28;;;;;;;3.53;2.57;;;;;;;17.59;72.06;97516.91;4988247;28;20203;-74
2023/07/21 04:33:56;;;;;;;3.57;2.60;;;;;;;17.58;72.15;97523.34;4988404;28;20238;-75
2023/07/21 04:36:23;;;;;;;4.60;2.67;;;;;;;17.50;73.23;97533.88;4993719;28;20211;-74
2023/07/21 04:38:49;;;;;;;5.27;2.80;;;;;;;17.56;73.34;97538.94;4995435;28;20215;-75
2023/07/21 04:41:16;;;;;;;2.90;2.60;;;;;;;17.57;73.85;97543.25;4995841;28;20651;-74
2023/07/21 04:43:43;;;;;;;3.63;2.53;;;;;;;17.52;74.20;97545.97;4994464;28;20322;-75
2023/07/21 04:46:13;;;;;;;3.43;2.57;;;;;;;17.68;70.91;97539.44;4990737;28;20218;-75
2023/07/21 04:48:39;;;;;;;3.00;2.63;;;;;;;17.72;71.56;97545.88;4991571;28;20234;-76
2023/07/21 04:51:06;;;;;;;4.63;2.60;;;;;;;17.71;72.04;97546.97;4995564;28;20202;-74
2023/07/21 04:53:32;;;;;;;4.47;2.70;;;;;;;17.69;73.36;97554.47;4995969;28;20214;-74
2023/07/21 04:55:59;;;;;;;5.03;2.93;;;;;;;17.82;73.51;97553.88;4993972;28;20211;-74
2023/07/21 04:58:25;;;;;;;6.10;3.10;;;;;;;17.86;72.75;97541.50;5004791;28;20235;-75
2023/07/21 05:00:54;;;;;;;6.03;2.63;;;;;;;17.92;72.29;97543.06;4994527;28;20213;-74
2023/07/21 05:03:20;;;;;;;5.67;2.90;;;;;;;17.91;71.75;97537.97;4995644;28;20239;-75
2023/07/21 05:05:48;;;;;;;6.23;3.33;;;;;;;17.94;71.01;97540.09;4995606;28;20239;-75
2023/07/21 05:08:14;;;;;;;7.13;2.67;;;;;;;17.93;70.90;97550.06;4994887;28;20714;-75
2023/07/21 05:10:40;;;;;;;4.40;2.67;;;;;;;17.94;70.63;97548.16;4995024;28;20573;-75
2023/07/21 05:13:08;;;;;;;4.23;2.47;;;;;;;17.98;70.65;97547.34;4995844;28;20206;-75
2023/07/21 05:15:35;;;;;;;6.90;2.93;;;;;;;18.01;71.58;97551.38;4995088;28;20566;-75
2023/07/21 05:18:03;;;;;;;5.80;2.97;;;;;;;18.00;71.19;97545.19;4995505;28;20207;-75
2023/07/21 05:20:29;;;;;;;6.23;2.90;;;;;;;18.07;71.60;97545.69;4995332;28;20208;-75
2023/07/21 05:22:56;;;;;;;4.50;2.93;;;;;;;18.06;72.16;97548.66;4995390;28;20219;-75
2023/07/21 05:25:22;;;;;;;4.10;2.70;;;;;;;18.05;70.70;97541.66;4995230;28;20211;-72
2023/07/21 05:27:53;;;;;;;4.57;2.70;;;;;;;18.05;70.63;97547.03;4994767;28;20219;-76
2023/07/21 05:30:20;;;;;;;6.10;2.83;;;;;;;18.10;69.10;97549.69;4995234;28;20211;-75
2023/07/21 05:32:47;;;;;;;5.03;2.70;;;;;;;18.10;70.25;97542.41;4995433;28;20211;-75
2023/07/21 05:35:13;;;;;;;5.33;2.77;;;;;;;18.17;69.57;97548.31;4995731;28;20717;-75
2023/07/21 05:37:40;;;;;;;6.00;2.83;;;;;;;18.23;69.98;97543.69;4995213;28;20293;-75
2023/07/21 05:40:08;;;;;;;5.57;3.03;;;;;;;18.24;71.52;97540.69;4994921;28;20219;-75
2023/07/21 05:42:34;;;;;;;5.00;2.70;;;;;;;18.31;71.51;97541.19;4995063;28;20301;-75
2023/07/21 05:45:01;;;;;;;5.20;2.77;;;;;;;18.29;70.90;97534.50;4994962;28;20592;-75
2023/07/21 05:47:28;;;;;;;4.53;3.10;;;;;;;18.40;71.15;97539.56;4995053;28;20294;-75
2023/07/21 05:50:00;;;;;;;5.80;2.73;;;;;;;18.54;69.91;97534.31;4994557;28;20329;-75
2023/07/21 05:52:26;;;;;;;4.23;2.90;;;;;;;18.67;69.06;97533.66;4995001;28;20196;-75
2023/07/21 05:54:53;;;;;;;4.37;2.73;;;;;;;18.79;68.82;97531.41;4994902;28;20207;-72
2023/07/21 05:57:20;;;;;;;4.37;2.53;;;;;;;18.84;70.25;97531.38;4994193;28;20211;-72
2023/07/21 05:59:46;;;;;;;4.57;2.47;;;;;;;18.98;67.40;97519.66;4994167;28;20595;-72
2023/07/21 06:02:13;;;;;;;6.17;2.80;;;;;;;19.14;67.67;97523.00;4994128;28;20218;-72
2023/07/21 06:04:39;;;;;;;4.30;2.70;;;;;;;19.14;65.39;97523.00;4994217;28;20216;-71
2023/07/21 06:07:06;;;;;;;5.47;2.70;;;;;;;19.22;65.20;97531.28;4994518;28;20211;-72
2023/07/21 06:09:32;;;;;;;5.10;2.50;;;;;;;19.33;62.99;97522.00;4994039;28;20602;-72
2023/07/21 06:11:59;;;;;;;2.77;2.23;;;;;;;19.39;66.24;97531.63;4994105;28;20269;-72
2023/07/21 06:14:25;;;;;;;6.37;3.00;;;;;;;19.54;66.25;97522.56;4993858;28;20207;-72
2023/07/21 06:16:51;;;;;;;3.97;2.50;;;;;;;19.67;63.79;97527.22;4994058;28;20207;-72
2023/07/21 06:19:18;;;;;;;3.33;2.27;;;;;;;19.64;65.02;97525.13;4993498;28;20227;-72
2023/07/21 06:21:44;;;;;;;5.27;2.70;;;;;;;19.63;64.62;97526.22;4992736;28;20619;-72
2023/07/21 06:24:10;;;;;;;5.70;2.60;;;;;;;19.67;64.67;97526.44;4994128;28;20207;-72
2023/07/21 06:26:38;;;;;;;2.80;2.27;;;;;;;19.81;61.39;97530.03;4993914;28;20207;-72
2023/07/21 06:29:05;;;;;;;4.53;2.37;;;;;;;19.87;62.11;97531.53;4993215;28;20230;-72
2023/07/21 06:31:31;;;;;;;3.97;2.30;;;;;;;19.88;62.40;97533.16;4993992;28;20225;-72
2023/07/21 06:33:58;;;;;;;4.60;2.80;;;;;;;19.98;63.41;97530.34;4993940;28;20291;-72
2023/07/21 06:36:25;;;;;;;3.40;2.60;;;;;;;20.08;62.49;97532.88;4994002;28;20211;-72
2023/07/21 06:38:51;;;;;;;3.13;2.13;;;;;;;20.06;61.33;97535.88;4994170;28;20241;-72
2023/07/21 06:41:18;;;;;;;4.03;2.23;;;;;;;20.14;63.01;97545.22;4994181;28;20203;-72
2023/07/21 06:43:44;;;;;;;3.17;2.33;;;;;;;20.24;57.94;97542.38;4994116;28;20206;-72
2023/07/21 06:46:10;;;;;;;4.97;2.03;;;;;;;20.56;55.49;97542.41;4994081;28;20227;-72
2023/07/21 06:48:37;;;;;;;3.60;2.33;;;;;;;20.57;61.10;97539.41;4993798;28;20223;-73
2023/07/21 06:51:03;;;;;;;3.90;2.00;;;;;;;20.44;56.61;97542.88;4993891;28;20227;-72
2023/07/21 06:53:29;;;;;;;3.73;2.00;;;;;;;20.65;54.02;97538.75;4993814;28;20218;-72
2023/07/21 06:55:56;;;;;;;3.20;1.60;;;;;;;20.41;51.93;97537.25;4993755;28;20211;-72
2023/07/21 06:58:22;;;;;;;3.10;2.00;;;;;;;20.40;52.56;97539.19;4993518;28;20235;-72
2023/07/21 07:00:49;;;;;;;3.13;1.73;;;;;;;20.74;52.15;97541.56;4994947;28;20266;-72
2023/07/21 07:03:15;;;;;;;3.23;1.63;;;;;;;20.56;51.66;97535.13;4993790;28;20216;-71
2023/07/21 07:05:46;;;;;;;3.97;1.80;;;;;;;20.91;52.42;97531.03;4993682;28;20570;-72
2023/07/21 07:08:13;;;;;;;3.57;1.90;;;;;;;21.05;51.29;97538.09;4993492;28;20227;-71
2023/07/21 07:10:40;;;;;;;6.17;2.00;;;;;;;21.03;52.73;97547.59;4993850;28;20226;-71
2023/07/21 07:13:06;;;;;;;3.03;1.80;;;;;;;20.81;50.95;97552.81;4993607;28;20207;-71
2023/07/21 07:15:32;;;;;;;3.50;1.70;;;;;;;20.89;50.01;97549.44;4993711;28;20207;-71
2023/07/21 07:17:59;;;;;;;2.70;1.73;;;;;;;21.02;51.39;97552.19;4993597;28;20207;-71
2023/07/21 07:20:26;;;;;;;3.20;2.10;;;;;;;20.80;52.64;97556.63;4993535;28;20223;-71
2023/07/21 07:22:52;;;;;;;2.23;1.73;;;;;;;20.72;51.28;97560.00;4993619;28;20211;-71
2023/07/21 07:25:23;;;;;;;2.03;1.53;;;;;;;20.55;53.25;97557.03;4993529;28;20207;-71
2023/07/21 07:27:49;;;;;;;4.40;1.77;;;;;;;20.91;49.91;97560.78;4993003;28;20544;-70
2023/07/21 07:30:16;;;;;;;2.50;1.40;;;;;;;20.80;50.85;97559.31;4993158;28;20722;-70
2023/07/21 07:32:43;;;;;;;2.77;2.03;;;;;;;20.97;52.52;97559.56;4995591;28;20207;-70
2023/07/21 07:35:10;;;;;;;3.20;1.73;;;;;;;21.03;52.82;97555.72;4996956;28;20203;-71
2023/07/21 07:37:37;;;;;;;2.57;1.50;;;;;;;21.03;52.38;97561.91;4997046;28;20680;-71
2023/07/21 07:40:05;;;;;;;4.50;1.73;;;;;;;21.02;51.08;97559.50;4997061;28;20258;-70
2023/07/21 07:42:31;;;;;;;3.33;1.60;;;;;;;21.26;52.73;97560.16;4997177;28;20207;-71
2023/07/21 07:44:59;;;;;;;5.90;1.73;;;;;;;21.33;51.72;97561.34;4997108;28;20203;-71
2023/07/21 07:47:26;;;;;;;4.97;1.70;;;;;;;21.50;53.37;97553.44;4996995;28;20261;-71
2023/07/21 07:49:52;;;;;;;2.07;1.53;;;;;;;21.72;49.28;97552.78;4996612;28;20590;-71
2023/07/21 07:52:19;;;;;;;1.97;1.60;;;;;;;21.46;50.24;97549.75;4997195;28;20233;-71
2023/07/21 07:54:45;;;;;;;2.80;1.63;;;;;;;21.48;51.42;97549.44;4996681;28;20609;-71
2023/07/21 07:57:12;;;;;;;3.27;1.60;;;;;;;21.54;49.87;97556.34;4997052;28;20214;-71
2023/07/21 07:59:38;;;;;;;4.57;1.80;;;;;;;21.67;50.34;97561.78;4996918;28;20220;-71
2023/07/21 08:02:05;;;;;;;5.67;1.60;;;;;;;21.77;51.28;97566.19;4996915;28;20215;-71
2023/07/21 08:04:31;;;;;;;3.30;1.70;;;;;;;21.50;53.59;97569.69;4996531;28;20214;-71
2023/07/21 08:06:57;;;;;;;3.97;2.00;;;;;;;21.77;49.23;97580.53;4996608;28;20214;-71
2023/07/21 08:09:24;;;;;;;6.20;1.90;;;;;;;21.69;50.21;97581.22;4996614;28;20254;-71
2023/07/21 08:11:50;;;;;;;3.20;1.90;;;;;;;21.28;50.47;97577.66;4996701;28;20207;-71
2023/07/21 08:14:16;;;;;;;5.07;1.97;;;;;;;21.55;52.00;97579.59;4996693;28;20215;-71
2023/07/21 08:16:43;;;;;;;4.33;1.77;;;;;;;21.77;51.19;97575.13;4996742;28;20210;-71
2023/07/21 08:19:09;;;;;;;2.95;1.85;;;;;;;22.00;48.93;97579.50;4996582;28;20335;-71
2023/07/21 08:21:36;;;;;;;5.90;2.00;;;;;;;21.73;48.33;97570.59;4996680;28;20203;-71
2023/07/21 08:24:02;;;;;;;4.07;1.90;;;;;;;22.10;50.16;97564.94;4996271;28;20207;-71
2023/07/21 08:26:28;;;;;;;2.40;1.53;;;;;;;22.53;46.61;97564.25;4996525;28;20214;-71
2023/07/21 08:28:55;;;;;;;1.70;1.58;;;;;;;22.71;46.73;97565.97;4996190;28;20223;-71
2023/07/21 08:31:21;;;;;;;3.33;1.70;;;;;;;22.88;46.46;97574.22;4996294;28;20243;-70
2023/07/21 08:33:48;;;;;;;1.90;1.60;;;;;;;22.62;46.13;97572.44;4995994;28;20298;-71
2023/07/21 08:36:15;;;;;;;4.47;1.88;;;;;;;22.37;46.09;97572.97;4996554;28;20654;-71
2023/07/21 08:38:41;;;;;;;2.85;1.73;;;;;;;22.42;47.43;97573.69;4996096;28;20231;-71
2023/07/21 08:41:09;;;;;;;2.50;1.63;;;;;;;22.71;46.65;97570.59;4996124;28;20208;-71
2023/07/21 08:43:36;;;;;;;2.08;1.35;;;;;;;22.91;46.00;97567.38;4995286;28;20211;-71
2023/07/21 08:46:08;;;;;;;3.83;1.73;;;;;;;22.96;45.01;97565.34;4995911;28;20209;-72
2023/07/21 08:48:35;;;;;;;2.83;1.70;;;;;;;22.98;42.96;97562.31;4996561;28;20231;-71
2023/07/21 08:51:03;;;;;;;5.03;1.50;;;;;;;22.73;43.40;97571.06;4995627;28;20238;-71
2023/07/21 08:53:29;;;;;;;3.67;1.80;;;;;;;22.82;42.82;97564.63;4995900;28;20218;-71
2023/07/21 08:55:58;;;;;;;3.25;1.25;;;;;;;22.65;41.30;97566.41;4995847;28;20207;-71
2023/07/21 08:58:26;;;;;;;1.50;1.40;;;;;;;22.75;41.30;97568.88;4995616;28;20231;-71
2023/07/21 09:00:53;;;;;;;1.92;1.25;;;;;;;22.93;36.96;97570.59;4995862;28;20207;-71
2023/07/21 09:03:46;;;;;;;5.15;1.38;;;;;;;22.83;38.96;97577.06;4995755;28;20207;-71
2023/07/21 09:06:14;;;;;;;1.48;1.35;;;;;;;22.96;37.84;97578.91;4995790;28;20194;-71
2023/07/21 09:08:41;;;;;;;1.98;1.38;;;;;;;23.28;38.02;97572.41;4995411;28;20321;-71
2023/07/21 09:11:09;;;;;;;1.65;1.40;;;;;;;23.26;38.55;97571.91;4995465;28;20231;-71
2023/07/21 09:13:35;;;;;;;2.03;1.40;;;;;;;23.42;39.07;97568.47;4995350;28;20298;-71
2023/07/21 09:16:05;;;;;;;1.63;1.27;;;;;;;23.41;40.03;97561.47;4995464;28;20692;-71
2023/07/21 09:18:42;;;;;;;3.03;1.25;;;;;;;23.39;38.12;97568.31;4995445;28;20231;-71
2023/07/21 09:21:20;;;;;;;4.30;1.20;;;;;;;23.19;40.55;97571.56;4995279;28;20210;-71
2023/07/21 09:23:48;;;;;;;3.70;1.50;;;;;;;23.45;39.74;97561.63;4995729;28;20196;-71
2023/07/21 09:26:21;;;;;;;3.13;1.30;;;;;;;23.53;38.74;97577.97;4995132;28;20211;-71
2023/07/21 09:28:48;;;;;;;2.45;1.52;;;;;;;22.93;38.53;97573.31;4995090;28;20235;-71
2023/07/21 09:31:15;;;;;;;1.42;1.20;;;;;;;23.55;38.78;97559.44;4994543;28;20227;-71
2023/07/21 09:33:43;;;;;;;4.13;1.48;;;;;;;23.80;38.76;97569.59;4994876;28;20210;-71
2023/07/21 09:36:15;;;;;;;1.65;1.45;;;;;;;23.78;39.04;97565.59;4994971;28;20297;-71
2023/07/21 09:38:42;;;;;;;3.08;1.33;;;;;;;24.01;38.98;97565.19;4995223;28;20321;-71
2023/07/21 09:41:14;;;;;;;3.17;1.17;;;;;;;24.47;37.54;97565.41;4995179;28;20226;-71
2023/07/21 09:43:42;;;;;;;2.10;1.40;;;;;;;24.45;36.65;97564.94;4994872;28;20213;-71
2023/07/21 09:46:09;;;;;;;6.97;1.48;;;;;;;24.10;37.63;97552.44;4994843;28;20207;-71
2023/07/21 09:48:37;;;;;;;4.47;1.45;;;;;;;24.11;39.36;97555.94;4994180;28;20231;-71
2023/07/21 09:51:07;;;;;;;2.47;1.50;;;;;;;24.34;39.42;97554.69;4994510;28;20698;-72
2023/07/21 09:53:39;;;;;;;2.55;1.70;;;;;;;24.62;38.15;97548.66;4995407;28;20211;-72
2023/07/21 09:56:07;;;;;;;3.35;1.50;;;;;;;24.42;37.82;97556.63;4994904;28;20203;-73
2023/07/21 09:58:43;;;;;;;3.53;1.40;;;;;;;24.00;37.73;97558.16;4994643;28;20227;-73
2023/07/21 10:01:10;;;;;;;2.70;1.25;;;;;;;23.20;39.78;97552.25;4994540;28;20219;-73
2023/07/21 10:03:37;;;;;;;2.13;1.45;;;;;;;23.69;37.14;97548.50;4994858;28;20210;-73
2023/07/21 10:06:04;;;;;;;4.35;1.50;;;;;;;23.34;37.98;97542.13;4994970;28;20207;-73
2023/07/21 10:08:33;;;;;;;4.65;1.80;;;;;;;23.57;38.28;97540.91;4993550;28;20233;-73
2023/07/21 10:11:01;;;;;;;2.15;1.48;;;;;;;24.07;37.66;97541.41;4993448;28;20227;-73
2023/07/21 10:13:30;;;;;;;2.58;1.35;;;;;;;23.43;37.23;97539.44;4994227;28;20234;-73
2023/07/21 10:16:02;;;;;;;4.05;1.90;;;;;;;23.81;36.67;97530.47;4994566;28;20213;-73
2023/07/21 10:18:28;;;;;;;2.00;1.35;;;;;;;23.75;37.59;97537.16;4994432;28;20323;-73
2023/07/21 10:20:56;;;;;;;3.22;1.50;;;;;;;23.82;36.65;97532.06;4994146;28;20205;-73
2023/07/21 10:23:39;;;;;;;3.42;1.70;;;;;;;23.88;36.93;97536.22;4993792;28;20717;-73
2023/07/21 10:26:11;;;;;;;2.08;1.50;;;;;;;23.93;39.28;97540.75;4993791;28;20198;-73
2023/07/21 10:28:46;;;;;;;1.92;1.55;;;;;;;23.85;39.39;97534.16;4993743;28;20234;-73
2023/07/21 10:31:22;;;;;;;6.07;1.38;;;;;;;23.62;38.82;97531.84;4994428;28;20238;-73
2023/07/21 10:34:06;;;;;;;1.83;1.70;;;;;;;23.86;39.65;97537.66;4994056;28;20213;-71
2023/07/21 10:36:45;;;;;;;1.50;1.40;;;;;;;24.02;38.21;97538.84;4993857;28;20211;-71
2023/07/21 10:39:14;;;;;;;2.97;1.42;;;;;;;24.20;36.93;97556.78;4993883;28;20277;-71
2023/07/21 10:41:41;;;;;;;3.28;1.50;;;;;;;23.94;37.62;97550.50;4993787;28;20207;-72
2023/07/21 10:44:08;;;;;;;1.73;1.58;;;;;;;23.85;37.09;97542.31;4993901;28;20207;-72
2023/07/21 10:46:45;;;;;;;2.20;1.50;;;;;;;24.69;39.48;97538.09;4993457;28;20211;-73
2023/07/21 10:49:13;;;;;;;1.67;1.40;;;;;;;24.14;36.39;97544.44;4993659;28;20235;-73
2023/07/21 10:51:41;;;;;;;2.55;1.48;;;;;;;24.43;36.59;97545.41;4993683;28;20261;-73
2023/07/21 10:54:09;;;;;;;3.42;2.00;;;;;;;24.49;37.64;97546.06;4993368;28;20211;-73
2023/07/21 10:56:36;;;;;;;3.10;1.45;;;;;;;25.16;36.16;97539.75;4993446;28;20207;-73
2023/07/21 10:59:04;;;;;;;4.57;1.50;;;;;;;25.03;36.25;97535.31;4993670;28;20305;-73
2023/07/21 11:01:31;;;;;;;3.53;1.50;;;;;;;24.96;36.25;97545.88;4993756;28;20203;-73
2023/07/21 11:03:58;;;;;;;2.03;1.42;;;;;;;24.51;37.25;97546.56;4993545;28;20585;-73
2023/07/21 11:06:26;;;;;;;2.53;1.50;;;;;;;24.68;37.71;97543.84;4993601;28;20202;-71
2023/07/21 11:08:52;;;;;;;1.50;1.40;;;;;;;24.46;36.56;97533.91;4997374;28;20237;-71
2023/07/21 11:11:18;;;;;;;3.83;1.77;;;;;;;24.98;37.86;97534.69;4997027;28;20712;-71
2023/07/21 11:13:45;;;;;;;3.25;1.55;;;;;;;25.42;36.56;97543.19;4997070;28;20294;-71
2023/07/21 11:16:11;;;;;;;2.13;1.60;;;;;;;24.99;35.44;97541.72;4997542;28;20631;-71
2023/07/21 11:18:42;;;;;;;1.83;1.67;;;;;;;24.48;36.90;97549.91;4997335;28;20223;-72
2023/07/21 11:21:08;;;;;;;2.58;1.55;;;;;;;24.09;37.30;97553.56;4998041;28;20254;-71
2023/07/21 11:23:34;;;;;;;5.10;1.70;;;;;;;24.13;39.33;97548.28;4997483;28;20211;-71
2023/07/21 11:26:11;;;;;;;2.53;1.60;;;;;;;24.10;38.93;97546.22;4996864;28;20694;-71
2023/07/21 11:28:43;;;;;;;1.83;1.58;;;;;;;23.95;37.47;97544.75;4996830;28;20334;-71
2023/07/21 11:31:14;;;;;;;4.90;1.85;;;;;;;23.96;37.97;97553.66;4997307;28;20353;-71
2023/07/21 11:33:46;;;;;;;2.90;1.90;;;;;;;24.13;37.72;97540.13;4996153;28;20925;-71
2023/07/21 11:36:21;;;;;;;3.60;1.77;;;;;;;24.36;37.73;97530.72;4997306;28;20213;-71